sensor_id;sensor_type;location;lat;lon;timestamp;temperature;humidity
15131;DHT22;7666;50.920;4.628;2024-02-21T00:02:17;9.70;99.90
15131;DHT22;7666;50.920;4.628;2024-02-21T00:05:04;9.70;99.90
15131;DHT22;7666;50.920;4.628;2024-02-21T00:07:50;9.70;99.90
15131;DHT22;7666;50.920;4.628;2024-02-21T00:10:36;9.70;99.90
15131;DHT22;7666;50.920;4.628;2024-02-21T00:13:21;9.70;99.90
15131;DHT22;7666;50.920;4.628;2024-02-21T00:16:07;9.70;99.90
15131;DHT22;7666;50.920;4.628;2024-02-21T00:18:53;9.70;99.90
15131;DHT22;7666;50.920;4.628;2024-02-21T00:21:39;9.70;99.90
15131;DHT22;7666;50.920;4.628;2024-02-21T00:24:25;9.70;99.90
15131;DHT22;7666;50.920;4.628;2024-02-21T00:27:11;9.70;99.90
15131;DHT22;7666;50.920;4.628;2024-02-21T00:29:57;9.70;99.90
15131;DHT22;7666;50.920;4.628;2024-02-21T00:32:43;9.70;99.90
15131;DHT22;7666;50.920;4.628;2024-02-21T00:35:29;9.70;99.90
15131;DHT22;7666;50.920;4.628;2024-02-21T00:38:15;9.70;99.90
15131;DHT22;7666;50.920;4.628;2024-02-21T00:41:01;9.70;99.90
15131;DHT22;7666;50.920;4.628;2024-02-21T00:43:47;9.70;99.90
15131;DHT22;7666;50.920;4.628;2024-02-21T00:46:35;9.70;99.90
15131;DHT22;7666;50.920;4.628;2024-02-21T00:49:24;9.70;99.90
15131;DHT22;7666;50.920;4.628;2024-02-21T00:52:10;9.70;99.90
15131;DHT22;7666;50.920;4.628;2024-02-21T00:54:56;9.70;99.90
15131;DHT22;7666;50.920;4.628;2024-02-21T00:57:42;9.70;99.90
15131;DHT22;7666;50.920;4.628;2024-02-21T01:00:28;9.70;99.90
15131;DHT22;7666;50.920;4.628;2024-02-21T01:03:14;9.70;99.90
15131;DHT22;7666;50.920;4.628;2024-02-21T01:06:00;9.70;99.90
15131;DHT22;7666;50.920;4.628;2024-02-21T01:08:46;9.70;99.90
15131;DHT22;7666;50.920;4.628;2024-02-21T01:11:33;9.70;99.90
15131;DHT22;7666;50.920;4.628;2024-02-21T01:14:19;9.70;99.90
15131;DHT22;7666;50.920;4.628;2024-02-21T01:17:05;9.70;99.90
15131;DHT22;7666;50.920;4.628;2024-02-21T01:19:52;9.70;99.90
15131;DHT22;7666;50.920;4.628;2024-02-21T01:22:37;9.70;99.90
15131;DHT22;7666;50.920;4.628;2024-02-21T01:25:23;9.70;99.90
15131;DHT22;7666;50.920;4.628;2024-02-21T01:28:09;9.70;99.90
15131;DHT22;7666;50.920;4.628;2024-02-21T01:30:56;9.60;99.90
15131;DHT22;7666;50.920;4.628;2024-02-21T01:33:42;9.60;99.90
15131;DHT22;7666;50.920;4.628;2024-02-21T01:36:28;9.60;99.90
15131;DHT22;7666;50.920;4.628;2024-02-21T01:39:14;9.50;99.90
15131;DHT22;7666;50.920;4.628;2024-02-21T01:42:00;9.50;99.90
15131;DHT22;7666;50.920;4.628;2024-02-21T01:44:46;9.50;99.90
15131;DHT22;7666;50.920;4.628;2024-02-21T01:47:32;9.40;99.90
15131;DHT22;7666;50.920;4.628;2024-02-21T01:50:18;9.40;99.90
15131;DHT22;7666;50.920;4.628;2024-02-21T01:53:05;9.40;99.90
15131;DHT22;7666;50.920;4.628;2024-02-21T01:55:51;9.40;99.90
15131;DHT22;7666;50.920;4.628;2024-02-21T01:58:39;9.30;99.90
15131;DHT22;7666;50.920;4.628;2024-02-21T02:01:26;9.20;99.90
15131;DHT22;7666;50.920;4.628;2024-02-21T02:04:12;9.20;99.90
15131;DHT22;7666;50.920;4.628;2024-02-21T02:07:02;9.20;99.90
15131;DHT22;7666;50.920;4.628;2024-02-21T02:09:49;9.20;99.90
15131;DHT22;7666;50.920;4.628;2024-02-21T02:12:36;9.20;99.90
15131;DHT22;7666;50.920;4.628;2024-02-21T02:15:22;9.20;99.90
15131;DHT22;7666;50.920;4.628;2024-02-21T02:18:08;9.20;99.90
15131;DHT22;7666;50.920;4.628;2024-02-21T02:20:54;9.20;99.90
15131;DHT22;7666;50.920;4.628;2024-02-21T02:23:41;9.20;99.90
15131;DHT22;7666;50.920;4.628;2024-02-21T02:26:28;9.30;99.90
15131;DHT22;7666;50.920;4.628;2024-02-21T02:29:14;9.20;99.90
15131;DHT22;7666;50.920;4.628;2024-02-21T02:32:00;9.30;99.90
15131;DHT22;7666;50.920;4.628;2024-02-21T02:34:45;9.20;99.90
15131;DHT22;7666;50.920;4.628;2024-02-21T02:37:31;9.30;99.90
15131;DHT22;7666;50.920;4.628;2024-02-21T02:40:18;9.30;99.90
15131;DHT22;7666;50.920;4.628;2024-02-21T02:43:04;9.20;99.90
15131;DHT22;7666;50.920;4.628;2024-02-21T02:45:50;9.20;99.90
15131;DHT22;7666;50.920;4.628;2024-02-21T02:48:36;9.20;99.90
15131;DHT22;7666;50.920;4.628;2024-02-21T02:51:24;9.30;99.90
15131;DHT22;7666;50.920;4.628;2024-02-21T02:54:10;9.30;99.90
15131;DHT22;7666;50.920;4.628;2024-02-21T02:56:56;9.20;99.90
15131;DHT22;7666;50.920;4.628;2024-02-21T02:59:46;9.20;99.90
15131;DHT22;7666;50.920;4.628;2024-02-21T03:02:32;9.20;99.90
15131;DHT22;7666;50.920;4.628;2024-02-21T03:05:20;9.30;99.90
15131;DHT22;7666;50.920;4.628;2024-02-21T03:08:06;9.30;99.90
15131;DHT22;7666;50.920;4.628;2024-02-21T03:10:52;9.20;99.90
15131;DHT22;7666;50.920;4.628;2024-02-21T03:13:38;9.20;99.90
15131;DHT22;7666;50.920;4.628;2024-02-21T03:16:25;9.20;99.90
15131;DHT22;7666;50.920;4.628;2024-02-21T03:19:11;9.20;99.90
15131;DHT22;7666;50.920;4.628;2024-02-21T03:21:57;9.20;99.90
15131;DHT22;7666;50.920;4.628;2024-02-21T03:24:43;9.20;99.90
15131;DHT22;7666;50.920;4.628;2024-02-21T03:27:29;9.20;99.90
15131;DHT22;7666;50.920;4.628;2024-02-21T03:30:15;9.20;99.90
15131;DHT22;7666;50.920;4.628;2024-02-21T03:33:02;9.20;99.90
15131;DHT22;7666;50.920;4.628;2024-02-21T03:35:48;9.20;99.90
15131;DHT22;7666;50.920;4.628;2024-02-21T03:38:34;9.20;99.90
15131;DHT22;7666;50.920;4.628;2024-02-21T03:41:20;9.20;99.90
15131;DHT22;7666;50.920;4.628;2024-02-21T03:44:06;9.20;99.90
15131;DHT22;7666;50.920;4.628;2024-02-21T03:46:52;9.10;99.90
15131;DHT22;7666;50.920;4.628;2024-02-21T03:49:38;9.20;99.90
15131;DHT22;7666;50.920;4.628;2024-02-21T03:52:24;9.20;99.90
15131;DHT22;7666;50.920;4.628;2024-02-21T03:55:10;9.20;99.90
15131;DHT22;7666;50.920;4.628;2024-02-21T03:57:56;9.20;99.90
15131;DHT22;7666;50.920;4.628;2024-02-21T04:00:42;9.20;99.90
15131;DHT22;7666;50.920;4.628;2024-02-21T04:03:28;9.10;99.90
15131;DHT22;7666;50.920;4.628;2024-02-21T04:06:14;9.20;99.90
15131;DHT22;7666;50.920;4.628;2024-02-21T04:09:00;9.10;99.90
15131;DHT22;7666;50.920;4.628;2024-02-21T04:11:46;9.10;99.90
15131;DHT22;7666;50.920;4.628;2024-02-21T04:14:32;9.10;99.90
15131;DHT22;7666;50.920;4.628;2024-02-21T04:17:18;9.20;99.90
15131;DHT22;7666;50.920;4.628;2024-02-21T04:20:04;9.10;99.90
15131;DHT22;7666;50.920;4.628;2024-02-21T04:22:56;9.10;99.90
15131;DHT22;7666;50.920;4.628;2024-02-21T04:25:42;9.10;99.90
15131;DHT22;7666;50.920;4.628;2024-02-21T04:28:28;9.10;99.90
15131;DHT22;7666;50.920;4.628;2024-02-21T04:31:14;9.10;99.90
15131;DHT22;7666;50.920;4.628;2024-02-21T04:34:00;9.10;99.90
15131;DHT22;7666;50.920;4.628;2024-02-21T04:36:46;9.10;99.90
15131;DHT22;7666;50.920;4.628;2024-02-21T04:39:32;9.10;99.90
15131;DHT22;7666;50.920;4.628;2024-02-21T04:42:18;9.10;99.90
15131;DHT22;7666;50.920;4.628;2024-02-21T04:45:06;9.10;99.90
15131;DHT22;7666;50.920;4.628;2024-02-21T04:47:52;9.10;99.90
15131;DHT22;7666;50.920;4.628;2024-02-21T04:50:38;9.10;99.90
15131;DHT22;7666;50.920;4.628;2024-02-21T04:53:24;9.10;99.90
15131;DHT22;7666;50.920;4.628;2024-02-21T04:56:10;9.10;99.90
15131;DHT22;7666;50.920;4.628;2024-02-21T04:58:56;9.10;99.90
15131;DHT22;7666;50.920;4.628;2024-02-21T05:01:42;9.10;99.90
15131;DHT22;7666;50.920;4.628;2024-02-21T05:04:28;9.10;99.90
15131;DHT22;7666;50.920;4.628;2024-02-21T05:07:14;9.10;99.90
15131;DHT22;7666;50.920;4.628;2024-02-21T05:10:00;9.10;99.90
15131;DHT22;7666;50.920;4.628;2024-02-21T05:12:45;9.10;99.90
15131;DHT22;7666;50.920;4.628;2024-02-21T05:15:31;9.10;99.90
15131;DHT22;7666;50.920;4.628;2024-02-21T05:18:17;9.10;99.90
15131;DHT22;7666;50.920;4.628;2024-02-21T05:21:03;9.10;99.90
15131;DHT22;7666;50.920;4.628;2024-02-21T05:23:50;9.10;99.90
15131;DHT22;7666;50.920;4.628;2024-02-21T05:26:36;9.10;99.90
15131;DHT22;7666;50.920;4.628;2024-02-21T05:29:22;9.10;99.90
15131;DHT22;7666;50.920;4.628;2024-02-21T05:32:08;9.10;99.90
15131;DHT22;7666;50.920;4.628;2024-02-21T05:34:54;9.10;99.90
15131;DHT22;7666;50.920;4.628;2024-02-21T05:37:40;9.10;99.90
15131;DHT22;7666;50.920;4.628;2024-02-21T05:40:26;9.10;99.90
15131;DHT22;7666;50.920;4.628;2024-02-21T05:43:13;9.10;99.90
15131;DHT22;7666;50.920;4.628;2024-02-21T05:45:59;9.10;99.90
15131;DHT22;7666;50.920;4.628;2024-02-21T05:48:45;9.10;99.90
15131;DHT22;7666;50.920;4.628;2024-02-21T05:51:33;9.10;99.90
15131;DHT22;7666;50.920;4.628;2024-02-21T05:54:19;9.10;99.90
15131;DHT22;7666;50.920;4.628;2024-02-21T05:57:05;9.10;99.90
15131;DHT22;7666;50.920;4.628;2024-02-21T05:59:51;9.10;99.90
15131;DHT22;7666;50.920;4.628;2024-02-21T06:02:37;9.10;99.90
15131;DHT22;7666;50.920;4.628;2024-02-21T06:05:23;9.10;99.90
15131;DHT22;7666;50.920;4.628;2024-02-21T06:08:09;9.10;99.90
15131;DHT22;7666;50.920;4.628;2024-02-21T06:10:55;9.10;99.90
15131;DHT22;7666;50.920;4.628;2024-02-21T06:13:41;9.10;99.90
15131;DHT22;7666;50.920;4.628;2024-02-21T06:16:27;9.10;99.90
15131;DHT22;7666;50.920;4.628;2024-02-21T06:19:13;9.10;99.90
15131;DHT22;7666;50.920;4.628;2024-02-21T06:21:59;9.10;99.90
15131;DHT22;7666;50.920;4.628;2024-02-21T06:24:45;9.10;99.90
15131;DHT22;7666;50.920;4.628;2024-02-21T06:27:31;9.10;99.90
15131;DHT22;7666;50.920;4.628;2024-02-21T06:30:17;9.10;99.90
15131;DHT22;7666;50.920;4.628;2024-02-21T06:33:03;9.10;99.90
15131;DHT22;7666;50.920;4.628;2024-02-21T06:35:49;9.20;99.90
15131;DHT22;7666;50.920;4.628;2024-02-21T06:38:38;9.20;99.90
15131;DHT22;7666;50.920;4.628;2024-02-21T06:41:24;9.20;99.90
15131;DHT22;7666;50.920;4.628;2024-02-21T06:44:10;9.20;99.90
15131;DHT22;7666;50.920;4.628;2024-02-21T06:46:56;9.20;99.90
15131;DHT22;7666;50.920;4.628;2024-02-21T06:49:41;9.20;99.90
15131;DHT22;7666;50.920;4.628;2024-02-21T06:52:27;9.20;99.90
15131;DHT22;7666;50.920;4.628;2024-02-21T06:55:13;9.20;99.90
15131;DHT22;7666;50.920;4.628;2024-02-21T06:57:59;9.20;99.90
15131;DHT22;7666;50.920;4.628;2024-02-21T07:00:45;9.20;99.90
15131;DHT22;7666;50.920;4.628;2024-02-21T07:03:31;9.20;99.90
15131;DHT22;7666;50.920;4.628;2024-02-21T07:06:17;9.20;99.90
15131;DHT22;7666;50.920;4.628;2024-02-21T07:09:03;9.20;99.90
15131;DHT22;7666;50.920;4.628;2024-02-21T07:11:49;9.20;99.90
15131;DHT22;7666;50.920;4.628;2024-02-21T07:14:36;9.20;99.90
15131;DHT22;7666;50.920;4.628;2024-02-21T07:17:22;9.10;99.90
15131;DHT22;7666;50.920;4.628;2024-02-21T07:20:08;9.10;99.90
15131;DHT22;7666;50.920;4.628;2024-02-21T07:22:54;9.10;99.90
15131;DHT22;7666;50.920;4.628;2024-02-21T07:25:40;9.10;99.90
15131;DHT22;7666;50.920;4.628;2024-02-21T07:28:26;9.10;99.90
15131;DHT22;7666;50.920;4.628;2024-02-21T07:31:12;9.00;99.90
15131;DHT22;7666;50.920;4.628;2024-02-21T07:33:58;9.00;99.90
15131;DHT22;7666;50.920;4.628;2024-02-21T07:36:44;9.00;99.90
15131;DHT22;7666;50.920;4.628;2024-02-21T07:39:31;9.00;99.90
15131;DHT22;7666;50.920;4.628;2024-02-21T07:42:17;9.00;99.90
15131;DHT22;7666;50.920;4.628;2024-02-21T07:45:03;8.90;99.90
15131;DHT22;7666;50.920;4.628;2024-02-21T07:47:49;9.00;99.90
15131;DHT22;7666;50.920;4.628;2024-02-21T07:50:35;8.90;99.90
15131;DHT22;7666;50.920;4.628;2024-02-21T07:53:21;8.90;99.90
15131;DHT22;7666;50.920;4.628;2024-02-21T07:56:07;8.90;99.90
15131;DHT22;7666;50.920;4.628;2024-02-21T07:58:53;8.90;99.90
15131;DHT22;7666;50.920;4.628;2024-02-21T08:01:40;8.90;99.90
15131;DHT22;7666;50.920;4.628;2024-02-21T08:04:26;8.90;99.90
15131;DHT22;7666;50.920;4.628;2024-02-21T08:07:12;9.00;99.90
15131;DHT22;7666;50.920;4.628;2024-02-21T08:09:58;9.00;99.90
15131;DHT22;7666;50.920;4.628;2024-02-21T08:12:44;9.00;99.90
15131;DHT22;7666;50.920;4.628;2024-02-21T08:15:30;9.00;99.90
15131;DHT22;7666;50.920;4.628;2024-02-21T08:18:16;9.00;99.90
15131;DHT22;7666;50.920;4.628;2024-02-21T08:21:03;9.00;99.90
15131;DHT22;7666;50.920;4.628;2024-02-21T08:23:49;9.00;99.90
15131;DHT22;7666;50.920;4.628;2024-02-21T08:26:40;9.10;99.90
15131;DHT22;7666;50.920;4.628;2024-02-21T08:29:26;9.10;99.90
15131;DHT22;7666;50.920;4.628;2024-02-21T08:32:12;9.10;99.90
15131;DHT22;7666;50.920;4.628;2024-02-21T08:34:58;9.10;99.90
15131;DHT22;7666;50.920;4.628;2024-02-21T08:37:45;9.10;99.90
15131;DHT22;7666;50.920;4.628;2024-02-21T08:40:33;9.10;99.90
15131;DHT22;7666;50.920;4.628;2024-02-21T08:43:20;9.10;99.90
15131;DHT22;7666;50.920;4.628;2024-02-21T08:46:06;9.10;99.90
15131;DHT22;7666;50.920;4.628;2024-02-21T08:48:54;9.10;99.90
15131;DHT22;7666;50.920;4.628;2024-02-21T08:51:40;9.20;99.90
15131;DHT22;7666;50.920;4.628;2024-02-21T08:54:26;9.20;99.90
15131;DHT22;7666;50.920;4.628;2024-02-21T08:57:12;9.20;99.90
15131;DHT22;7666;50.920;4.628;2024-02-21T08:59:59;9.20;99.90
15131;DHT22;7666;50.920;4.628;2024-02-21T09:02:45;9.30;99.90
15131;DHT22;7666;50.920;4.628;2024-02-21T09:05:31;9.30;99.90
15131;DHT22;7666;50.920;4.628;2024-02-21T09:08:17;9.30;99.90
15131;DHT22;7666;50.920;4.628;2024-02-21T09:11:06;9.30;99.90
15131;DHT22;7666;50.920;4.628;2024-02-21T09:13:52;9.40;99.90
15131;DHT22;7666;50.920;4.628;2024-02-21T09:16:38;9.40;99.90
15131;DHT22;7666;50.920;4.628;2024-02-21T09:19:24;9.50;99.90
15131;DHT22;7666;50.920;4.628;2024-02-21T09:22:10;9.50;99.90
15131;DHT22;7666;50.920;4.628;2024-02-21T09:24:55;9.50;99.90
15131;DHT22;7666;50.920;4.628;2024-02-21T09:27:43;9.50;99.90
15131;DHT22;7666;50.920;4.628;2024-02-21T09:30:29;9.50;99.90
15131;DHT22;7666;50.920;4.628;2024-02-21T09:33:16;9.60;99.90
15131;DHT22;7666;50.920;4.628;2024-02-21T09:36:02;9.70;99.90
15131;DHT22;7666;50.920;4.628;2024-02-21T09:38:48;9.70;99.90
15131;DHT22;7666;50.920;4.628;2024-02-21T09:41:36;9.70;99.90
15131;DHT22;7666;50.920;4.628;2024-02-21T09:44:29;9.80;99.90
15131;DHT22;7666;50.920;4.628;2024-02-21T09:47:22;9.90;99.90
15131;DHT22;7666;50.920;4.628;2024-02-21T09:50:10;9.90;99.90
15131;DHT22;7666;50.920;4.628;2024-02-21T09:52:56;9.90;99.90
15131;DHT22;7666;50.920;4.628;2024-02-21T09:55:43;10.00;99.90
15131;DHT22;7666;50.920;4.628;2024-02-21T09:58:30;10.00;99.90
15131;DHT22;7666;50.920;4.628;2024-02-21T10:01:16;10.00;99.90
15131;DHT22;7666;50.920;4.628;2024-02-21T10:04:02;10.20;99.90
15131;DHT22;7666;50.920;4.628;2024-02-21T10:06:50;10.20;99.90
15131;DHT22;7666;50.920;4.628;2024-02-21T10:09:36;10.20;99.90
15131;DHT22;7666;50.920;4.628;2024-02-21T10:12:22;10.30;99.90
15131;DHT22;7666;50.920;4.628;2024-02-21T10:15:08;10.30;99.90
15131;DHT22;7666;50.920;4.628;2024-02-21T10:18:01;10.30;99.90
15131;DHT22;7666;50.920;4.628;2024-02-21T10:21:00;10.30;99.90
15131;DHT22;7666;50.920;4.628;2024-02-21T10:23:50;10.30;99.90
15131;DHT22;7666;50.920;4.628;2024-02-21T10:26:36;10.40;99.90
15131;DHT22;7666;50.920;4.628;2024-02-21T10:29:23;10.40;99.90
15131;DHT22;7666;50.920;4.628;2024-02-21T10:32:13;10.50;99.90
15131;DHT22;7666;50.920;4.628;2024-02-21T10:35:04;10.50;99.90
15131;DHT22;7666;50.920;4.628;2024-02-21T10:37:54;10.60;99.90
15131;DHT22;7666;50.920;4.628;2024-02-21T10:40:41;10.60;99.90
15131;DHT22;7666;50.920;4.628;2024-02-21T10:43:27;10.60;99.90
15131;DHT22;7666;50.920;4.628;2024-02-21T10:46:19;10.60;99.90
15131;DHT22;7666;50.920;4.628;2024-02-21T10:49:10;10.70;99.90
15131;DHT22;7666;50.920;4.628;2024-02-21T10:55:21;10.80;99.90
15131;DHT22;7666;50.920;4.628;2024-02-21T10:58:11;10.80;99.90
15131;DHT22;7666;50.920;4.628;2024-02-21T11:00:58;10.80;99.90
15131;DHT22;7666;50.920;4.628;2024-02-21T11:03:45;10.80;99.90
15131;DHT22;7666;50.920;4.628;2024-02-21T11:06:37;10.80;99.90
15131;DHT22;7666;50.920;4.628;2024-02-21T11:09:30;10.80;99.90
15131;DHT22;7666;50.920;4.628;2024-02-21T11:12:21;10.90;99.90
15131;DHT22;7666;50.920;4.628;2024-02-21T11:15:07;10.90;99.90
15131;DHT22;7666;50.920;4.628;2024-02-21T11:17:55;11.00;99.90
15131;DHT22;7666;50.920;4.628;2024-02-21T11:20:50;11.00;99.90
15131;DHT22;7666;50.920;4.628;2024-02-21T11:23:37;11.10;99.90
15131;DHT22;7666;50.920;4.628;2024-02-21T11:26:23;11.10;99.90
15131;DHT22;7666;50.920;4.628;2024-02-21T11:29:09;11.10;99.90
15131;DHT22;7666;50.920;4.628;2024-02-21T11:31:56;11.10;99.90
15131;DHT22;7666;50.920;4.628;2024-02-21T11:37:50;11.10;99.90
15131;DHT22;7666;50.920;4.628;2024-02-21T11:40:38;11.10;99.90
15131;DHT22;7666;50.920;4.628;2024-02-21T11:43:26;11.10;99.90
15131;DHT22;7666;50.920;4.628;2024-02-21T11:46:14;11.10;99.90
15131;DHT22;7666;50.920;4.628;2024-02-21T11:49:00;11.10;99.90
15131;DHT22;7666;50.920;4.628;2024-02-21T11:51:47;11.10;99.90
15131;DHT22;7666;50.920;4.628;2024-02-21T11:54:34;11.20;99.90
15131;DHT22;7666;50.920;4.628;2024-02-21T11:57:20;11.10;99.90
15131;DHT22;7666;50.920;4.628;2024-02-21T12:00:17;11.10;99.90
15131;DHT22;7666;50.920;4.628;2024-02-21T12:03:05;11.10;99.90
15131;DHT22;7666;50.920;4.628;2024-02-21T12:05:53;11.20;99.90
15131;DHT22;7666;50.920;4.628;2024-02-21T12:08:43;11.10;99.90
15131;DHT22;7666;50.920;4.628;2024-02-21T12:11:29;11.10;99.90
15131;DHT22;7666;50.920;4.628;2024-02-21T12:14:18;11.10;99.90
15131;DHT22;7666;50.920;4.628;2024-02-21T12:17:04;11.10;99.90
15131;DHT22;7666;50.920;4.628;2024-02-21T12:19:50;11.10;99.90
15131;DHT22;7666;50.920;4.628;2024-02-21T12:22:37;11.10;99.90
15131;DHT22;7666;50.920;4.628;2024-02-21T12:25:23;11.10;99.90
15131;DHT22;7666;50.920;4.628;2024-02-21T12:28:11;11.00;99.90
15131;DHT22;7666;50.920;4.628;2024-02-21T12:30:58;11.00;99.90
15131;DHT22;7666;50.920;4.628;2024-02-21T12:33:44;11.00;99.90
15131;DHT22;7666;50.920;4.628;2024-02-21T12:36:31;11.00;99.90
15131;DHT22;7666;50.920;4.628;2024-02-21T12:39:17;11.00;99.90
15131;DHT22;7666;50.920;4.628;2024-02-21T12:42:03;11.00;99.90
15131;DHT22;7666;50.920;4.628;2024-02-21T12:44:49;11.00;99.90
15131;DHT22;7666;50.920;4.628;2024-02-21T12:47:35;11.10;99.90
15131;DHT22;7666;50.920;4.628;2024-02-21T12:50:21;11.10;99.90
15131;DHT22;7666;50.920;4.628;2024-02-21T12:53:08;11.10;99.90
15131;DHT22;7666;50.920;4.628;2024-02-21T12:55:54;11.10;99.90
15131;DHT22;7666;50.920;4.628;2024-02-21T12:58:40;11.10;99.90
15131;DHT22;7666;50.920;4.628;2024-02-21T13:01:26;11.10;99.90
15131;DHT22;7666;50.920;4.628;2024-02-21T13:04:13;11.10;99.90
15131;DHT22;7666;50.920;4.628;2024-02-21T13:06:59;11.10;99.90
15131;DHT22;7666;50.920;4.628;2024-02-21T13:09:45;11.20;99.90
15131;DHT22;7666;50.920;4.628;2024-02-21T13:12:31;11.20;99.90
15131;DHT22;7666;50.920;4.628;2024-02-21T13:15:17;11.20;99.90
15131;DHT22;7666;50.920;4.628;2024-02-21T13:18:03;11.20;99.90
15131;DHT22;7666;50.920;4.628;2024-02-21T13:20:49;11.20;99.90
15131;DHT22;7666;50.920;4.628;2024-02-21T13:23:36;11.20;99.90
15131;DHT22;7666;50.920;4.628;2024-02-21T13:26:22;11.20;99.90
15131;DHT22;7666;50.920;4.628;2024-02-21T13:29:08;11.20;99.90
15131;DHT22;7666;50.920;4.628;2024-02-21T13:31:54;11.20;99.90
15131;DHT22;7666;50.920;4.628;2024-02-21T13:34:40;11.20;99.90
15131;DHT22;7666;50.920;4.628;2024-02-21T13:37:27;11.20;99.90
15131;DHT22;7666;50.920;4.628;2024-02-21T13:40:14;11.20;99.90
15131;DHT22;7666;50.920;4.628;2024-02-21T13:43:00;11.20;99.90
15131;DHT22;7666;50.920;4.628;2024-02-21T13:45:56;11.20;99.90
15131;DHT22;7666;50.920;4.628;2024-02-21T13:48:44;11.20;99.90
15131;DHT22;7666;50.920;4.628;2024-02-21T13:51:30;11.10;99.90
15131;DHT22;7666;50.920;4.628;2024-02-21T13:54:16;11.10;99.90
15131;DHT22;7666;50.920;4.628;2024-02-21T13:57:05;11.10;99.90
15131;DHT22;7666;50.920;4.628;2024-02-21T13:59:51;11.00;99.90
15131;DHT22;7666;50.920;4.628;2024-02-21T14:02:37;11.00;99.90
15131;DHT22;7666;50.920;4.628;2024-02-21T14:05:24;10.90;99.90
15131;DHT22;7666;50.920;4.628;2024-02-21T14:08:10;10.90;99.90
15131;DHT22;7666;50.920;4.628;2024-02-21T14:10:56;10.80;99.90
15131;DHT22;7666;50.920;4.628;2024-02-21T14:13:44;10.80;99.90
15131;DHT22;7666;50.920;4.628;2024-02-21T14:16:30;10.80;99.90
15131;DHT22;7666;50.920;4.628;2024-02-21T14:19:16;10.80;99.90
15131;DHT22;7666;50.920;4.628;2024-02-21T14:22:04;10.70;99.90
15131;DHT22;7666;50.920;4.628;2024-02-21T14:24:50;10.70;99.90
15131;DHT22;7666;50.920;4.628;2024-02-21T14:27:36;10.70;99.90
15131;DHT22;7666;50.920;4.628;2024-02-21T14:30:22;10.70;99.90
15131;DHT22;7666;50.920;4.628;2024-02-21T14:33:08;10.60;99.90
15131;DHT22;7666;50.920;4.628;2024-02-21T14:35:54;10.60;99.90
15131;DHT22;7666;50.920;4.628;2024-02-21T14:38:41;10.60;99.90
15131;DHT22;7666;50.920;4.628;2024-02-21T14:41:27;10.60;99.90
15131;DHT22;7666;50.920;4.628;2024-02-21T14:44:14;10.50;99.90
15131;DHT22;7666;50.920;4.628;2024-02-21T14:47:00;10.50;99.90
15131;DHT22;7666;50.920;4.628;2024-02-21T14:49:46;10.40;99.90
15131;DHT22;7666;50.920;4.628;2024-02-21T14:52:32;10.30;99.90
15131;DHT22;7666;50.920;4.628;2024-02-21T14:55:18;10.30;99.90
15131;DHT22;7666;50.920;4.628;2024-02-21T14:58:07;10.30;99.90
15131;DHT22;7666;50.920;4.628;2024-02-21T15:00:53;10.30;99.90
15131;DHT22;7666;50.920;4.628;2024-02-21T15:03:40;10.30;99.90
15131;DHT22;7666;50.920;4.628;2024-02-21T15:06:26;10.20;99.90
15131;DHT22;7666;50.920;4.628;2024-02-21T15:09:12;10.20;99.90
15131;DHT22;7666;50.920;4.628;2024-02-21T15:11:58;10.20;99.90
15131;DHT22;7666;50.920;4.628;2024-02-21T15:14:44;10.20;99.90
15131;DHT22;7666;50.920;4.628;2024-02-21T15:17:30;10.10;99.90
15131;DHT22;7666;50.920;4.628;2024-02-21T15:20:16;10.10;99.90
15131;DHT22;7666;50.920;4.628;2024-02-21T15:23:02;10.10;99.90
15131;DHT22;7666;50.920;4.628;2024-02-21T15:25:50;10.10;99.90
15131;DHT22;7666;50.920;4.628;2024-02-21T15:28:36;10.10;99.90
15131;DHT22;7666;50.920;4.628;2024-02-21T15:31:23;10.10;99.90
15131;DHT22;7666;50.920;4.628;2024-02-21T15:34:09;10.00;99.90
15131;DHT22;7666;50.920;4.628;2024-02-21T15:36:55;10.00;99.90
15131;DHT22;7666;50.920;4.628;2024-02-21T15:39:44;10.00;99.90
15131;DHT22;7666;50.920;4.628;2024-02-21T15:42:30;10.00;99.90
15131;DHT22;7666;50.920;4.628;2024-02-21T15:45:18;10.00;99.90
15131;DHT22;7666;50.920;4.628;2024-02-21T15:48:04;10.00;99.90
15131;DHT22;7666;50.920;4.628;2024-02-21T15:50:50;9.90;99.90
15131;DHT22;7666;50.920;4.628;2024-02-21T15:53:36;9.90;99.90
15131;DHT22;7666;50.920;4.628;2024-02-21T15:56:24;9.90;99.90
15131;DHT22;7666;50.920;4.628;2024-02-21T15:59:10;9.90;99.90
15131;DHT22;7666;50.920;4.628;2024-02-21T16:01:56;9.90;99.90
15131;DHT22;7666;50.920;4.628;2024-02-21T16:04:42;9.90;99.90
15131;DHT22;7666;50.920;4.628;2024-02-21T16:07:28;9.80;99.90
15131;DHT22;7666;50.920;4.628;2024-02-21T16:10:14;9.80;99.90
15131;DHT22;7666;50.920;4.628;2024-02-21T16:13:00;9.80;99.90
15131;DHT22;7666;50.920;4.628;2024-02-21T16:15:46;9.80;99.90
15131;DHT22;7666;50.920;4.628;2024-02-21T16:18:32;9.80;99.90
15131;DHT22;7666;50.920;4.628;2024-02-21T16:21:18;9.80;99.90
15131;DHT22;7666;50.920;4.628;2024-02-21T16:24:04;9.80;99.90
15131;DHT22;7666;50.920;4.628;2024-02-21T16:26:51;9.80;99.90
15131;DHT22;7666;50.920;4.628;2024-02-21T16:29:37;9.80;99.90
15131;DHT22;7666;50.920;4.628;2024-02-21T16:32:24;9.70;99.90
15131;DHT22;7666;50.920;4.628;2024-02-21T16:35:13;9.70;99.90
15131;DHT22;7666;50.920;4.628;2024-02-21T16:38:00;9.70;99.90
15131;DHT22;7666;50.920;4.628;2024-02-21T16:40:48;9.70;99.90
15131;DHT22;7666;50.920;4.628;2024-02-21T16:43:34;9.70;99.90
15131;DHT22;7666;50.920;4.628;2024-02-21T16:46:20;9.60;99.90
15131;DHT22;7666;50.920;4.628;2024-02-21T16:49:06;9.60;99.90
15131;DHT22;7666;50.920;4.628;2024-02-21T16:51:52;9.70;99.90
15131;DHT22;7666;50.920;4.628;2024-02-21T16:54:38;9.60;99.90
15131;DHT22;7666;50.920;4.628;2024-02-21T16:57:24;9.60;99.90
15131;DHT22;7666;50.920;4.628;2024-02-21T17:00:11;9.60;99.90
15131;DHT22;7666;50.920;4.628;2024-02-21T17:02:57;9.60;99.90
15131;DHT22;7666;50.920;4.628;2024-02-21T17:05:42;9.60;99.90
15131;DHT22;7666;50.920;4.628;2024-02-21T17:08:30;9.60;99.90
15131;DHT22;7666;50.920;4.628;2024-02-21T17:11:16;9.60;99.90
15131;DHT22;7666;50.920;4.628;2024-02-21T17:14:02;9.60;99.90
15131;DHT22;7666;50.920;4.628;2024-02-21T17:16:48;9.60;99.90
15131;DHT22;7666;50.920;4.628;2024-02-21T17:19:34;9.60;99.90
15131;DHT22;7666;50.920;4.628;2024-02-21T17:22:22;9.60;99.90
15131;DHT22;7666;50.920;4.628;2024-02-21T17:25:09;9.60;99.90
15131;DHT22;7666;50.920;4.628;2024-02-21T17:27:56;9.60;99.90
15131;DHT22;7666;50.920;4.628;2024-02-21T17:30:42;9.60;99.90
15131;DHT22;7666;50.920;4.628;2024-02-21T17:33:28;9.60;99.90
15131;DHT22;7666;50.920;4.628;2024-02-21T17:36:14;9.50;99.90
15131;DHT22;7666;50.920;4.628;2024-02-21T17:39:00;9.60;99.90
15131;DHT22;7666;50.920;4.628;2024-02-21T17:41:46;9.60;99.90
15131;DHT22;7666;50.920;4.628;2024-02-21T17:44:32;9.60;99.90
15131;DHT22;7666;50.920;4.628;2024-02-21T17:47:18;9.60;99.90
15131;DHT22;7666;50.920;4.628;2024-02-21T17:50:04;9.60;99.90
15131;DHT22;7666;50.920;4.628;2024-02-21T17:52:50;9.60;99.90
15131;DHT22;7666;50.920;4.628;2024-02-21T17:55:36;9.60;99.90
15131;DHT22;7666;50.920;4.628;2024-02-21T17:58:23;9.60;99.90
15131;DHT22;7666;50.920;4.628;2024-02-21T18:01:09;9.60;99.90
15131;DHT22;7666;50.920;4.628;2024-02-21T18:03:56;9.60;99.90
15131;DHT22;7666;50.920;4.628;2024-02-21T18:06:42;9.60;99.90
15131;DHT22;7666;50.920;4.628;2024-02-21T18:09:28;9.60;99.90